This is the latest recevied weather packets stored in our database for station/object HA6IFZ-10. If no packets are shown the sender has not sent any weather packets the latest 10 day(s).
| Time | Temp. | Humidity | Pressure | Rain* | Wind** | Luminosity | Snow |
|---|---|---|---|---|---|---|---|
| 1788137295 | 20° C | 49% | 1024.5 hPa | - | - | - | - |
| 1788136395 | 20.56° C | 48% | 1024.5 hPa | - | - | - | - |
| 1788135494 | 20.56° C | 48% | 1024.6 hPa | - | - | - | - |
| 1788134594 | 20.56° C | 48% | 1024.4 hPa | - | - | - | - |
| 1788133694 | 20.56° C | 48% | 1024.6 hPa | - | - | - | - |
| 1788132794 | 20.56° C | 48% | 1024.6 hPa | - | - | - | - |
| 1788131894 | 20.56° C | 47% | 1024.7 hPa | - | - | - | - |
| 1788130096 | 21.11° C | 46% | 1024.8 hPa | - | - | - | - |
| 1788129196 | 21.11° C | 45% | 1024.7 hPa | - | - | - | - |
| 1788128296 | 21.11° C | 45% | 1024.7 hPa | - | - | - | - |
| 1788127396 | 21.11° C | 45% | 1024.7 hPa | - | - | - | - |
| 1788126496 | 21.11° C | 45% | 1024.7 hPa | - | - | - | - |
| 1788125595 | 21.11° C | 45% | 1024.8 hPa | - | - | - | - |
| 1788124695 | 21.67° C | 44% | 1024.7 hPa | - | - | - | - |
| 1788123795 | 21.67° C | 43% | 1024.7 hPa | - | - | - | - |
| 1788122895 | 21.67° C | 43% | 1024.6 hPa | - | - | - | - |
| 1788121995 | 21.67° C | 44% | 1024.6 hPa | - | - | - | - |
| 1788121095 | 21.67° C | 43% | 1024.6 hPa | - | - | - | - |
| 1788120195 | 21.67° C | 43% | 1024.6 hPa | - | - | - | - |
| 1788119295 | 22.78° C | 40% | 1024.5 hPa | - | - | - | - |
| 1788118395 | 23.33° C | 39% | 1024.4 hPa | - | - | - | - |
| 1788117495 | 22.78° C | 41% | 1024.4 hPa | - | - | - | - |
| 1788116594 | 23.33° C | 40% | 1024.3 hPa | - | - | - | - |
| 1788115694 | 23.89° C | 38% | 1024.2 hPa | - | - | - | - |
| 1788114794 | 24.44° C | 37% | 1024.1 hPa | - | - | - | - |
* Rain since midnight (hover to see other rain measurements)
** Current wind speed in m/s (hover to see current wind gust speed)